Time;durP1;ratioP1;P1;durP2;ratioP2;P2;SDS_P1;SDS_P2;PMS_P1;PMS_P2;Temp;Humidity;BMP_temperature;BMP_pressure;BME280_temperature;BME280_humidity;BME280_pressure;Samples;Min_cycle;Max_cycle;Signal;HPM_P1;HPM_P2
2024/01/16 00:01:57;;;;;;;17.60;12.47;;;2.20;99.90;;;;;;5054599;28;20433;-64
2024/01/16 00:04:26;;;;;;;20.17;13.33;;;2.30;99.90;;;;;;5054724;28;20951;-64
2024/01/16 00:06:53;;;;;;;21.53;14.23;;;2.20;99.90;;;;;;5054441;28;20935;-64
2024/01/16 00:09:20;;;;;;;20.30;14.83;;;2.30;99.90;;;;;;5054498;28;20979;-64
2024/01/16 00:11:46;;;;;;;23.40;15.13;;;2.20;99.90;;;;;;5055696;28;20477;-64
2024/01/16 00:14:13;;;;;;;20.77;14.13;;;2.30;99.90;;;;;;5056249;28;20454;-63
2024/01/16 00:16:43;;;;;;;24.53;14.30;;;2.20;99.90;;;;;;5055541;28;20450;-63
2024/01/16 00:19:11;;;;;;;17.83;11.73;;;2.20;99.90;;;;;;5056527;28;20418;-64
2024/01/16 00:21:41;;;;;;;16.90;13.83;;;2.20;99.90;;;;;;5055138;28;20457;-64
2024/01/16 00:24:07;;;;;;;18.70;12.50;;;2.20;99.90;;;;;;5054674;28;20959;-64
2024/01/16 00:26:34;;;;;;;20.07;13.77;;;2.20;99.90;;;;;;5055163;28;20473;-64
2024/01/16 00:29:01;;;;;;;18.47;14.13;;;2.10;99.90;;;;;;5054322;28;20970;-64
2024/01/16 00:31:28;;;;;;;20.30;13.53;;;2.10;99.90;;;;;;5053456;28;20513;-64
2024/01/16 00:33:55;;;;;;;21.67;13.97;;;2.10;99.90;;;;;;5053815;28;20856;-64
2024/01/16 00:36:22;;;;;;;32.60;15.70;;;2.10;99.90;;;;;;5054400;28;20807;-64
2024/01/16 00:38:50;;;;;;;24.23;14.20;;;2.10;99.90;;;;;;5054490;28;20445;-64
2024/01/16 00:41:16;;;;;;;20.80;13.73;;;2.20;99.90;;;;;;5053682;28;20844;-64
2024/01/16 00:43:44;;;;;;;15.00;12.50;;;2.10;99.90;;;;;;5054007;28;20452;-64
2024/01/16 00:46:11;;;;;;;19.10;12.13;;;2.20;99.90;;;;;;5054334;28;20476;-63
2024/01/16 00:48:38;;;;;;;16.53;12.80;;;2.20;99.90;;;;;;5053839;28;20468;-63
2024/01/16 00:51:05;;;;;;;22.70;12.30;;;2.20;99.90;;;;;;5053803;28;20492;-63
2024/01/16 00:53:31;;;;;;;18.43;11.40;;;2.20;99.90;;;;;;5053362;28;20995;-63
2024/01/16 00:56:00;;;;;;;19.27;11.60;;;2.20;99.90;;;;;;5053388;28;20939;-63
2024/01/16 00:58:27;;;;;;;13.60;11.20;;;2.20;99.90;;;;;;5052753;28;20449;-63
2024/01/16 01:00:53;;;;;;;18.60;11.30;;;2.20;99.90;;;;;;5053139;28;20488;-63
2024/01/16 01:03:20;;;;;;;13.27;10.97;;;2.20;99.90;;;;;;5053010;28;20442;-63
2024/01/16 01:05:47;;;;;;;17.37;10.30;;;2.20;99.90;;;;;;5053508;28;20963;-63
2024/01/16 01:08:13;;;;;;;17.17;10.30;;;2.20;99.90;;;;;;5053344;28;20448;-63
2024/01/16 01:10:40;;;;;;;13.90;10.53;;;2.20;99.90;;;;;;5053227;28;20863;-63
2024/01/16 01:13:08;;;;;;;15.40;9.77;;;2.10;99.90;;;;;;5053754;28;20437;-63
2024/01/16 01:15:35;;;;;;;11.57;9.90;;;2.10;99.90;;;;;;5053243;28;20448;-63
2024/01/16 01:18:02;;;;;;;12.63;8.80;;;2.10;99.90;;;;;;5053256;28;20798;-63
2024/01/16 01:20:29;;;;;;;10.63;8.70;;;2.20;99.90;;;;;;5053048;28;20497;-63
2024/01/16 01:22:55;;;;;;;16.73;10.80;;;2.10;99.90;;;;;;5053172;28;20438;-63
2024/01/16 01:25:22;;;;;;;12.90;10.73;;;2.00;99.90;;;;;;5052808;28;20955;-63
2024/01/16 01:27:49;;;;;;;13.00;9.67;;;2.10;99.90;;;;;;5052757;28;20444;-63
2024/01/16 01:30:17;;;;;;;15.53;9.90;;;2.20;99.90;;;;;;5053044;28;20480;-63
2024/01/16 01:32:44;;;;;;;17.93;11.37;;;2.10;99.90;;;;;;5053287;28;20481;-63
2024/01/16 01:35:11;;;;;;;17.00;11.77;;;2.10;99.90;;;;;;5052943;28;20456;-63
2024/01/16 01:37:38;;;;;;;14.73;12.33;;;2.20;99.90;;;;;;5053026;28;20446;-63
2024/01/16 01:40:05;;;;;;;14.17;11.53;;;2.10;99.90;;;;;;5052935;28;20466;-64
2024/01/16 01:42:32;;;;;;;19.10;12.73;;;2.20;99.90;;;;;;5054183;28;20450;-63
2024/01/16 01:44:59;;;;;;;19.90;11.93;;;2.20;99.90;;;;;;5056924;28;20441;-64
2024/01/16 01:47:27;;;;;;;20.00;11.27;;;2.10;99.90;;;;;;5056902;28;20449;-64
2024/01/16 01:49:54;;;;;;;16.17;10.80;;;2.10;99.90;;;;;;5057094;28;20457;-63
2024/01/16 01:52:20;;;;;;;20.20;11.00;;;2.20;99.90;;;;;;5056628;28;20492;-63
2024/01/16 01:54:47;;;;;;;15.60;10.23;;;2.10;99.90;;;;;;5056996;28;20449;-64
2024/01/16 01:57:15;;;;;;;14.87;10.10;;;2.10;99.90;;;;;;5056785;28;20888;-63
2024/01/16 01:59:42;;;;;;;19.73;10.50;;;2.10;99.90;;;;;;5056315;28;21002;-63
2024/01/16 02:02:09;;;;;;;20.53;10.57;;;2.10;99.90;;;;;;5056620;28;20437;-63
2024/01/16 02:04:39;;;;;;;15.10;9.80;;;2.10;99.90;;;;;;5056516;28;20460;-63
2024/01/16 02:07:06;;;;;;;22.50;11.30;;;2.10;99.90;;;;;;5056519;28;20463;-63
2024/01/16 02:09:33;;;;;;;18.13;11.07;;;2.20;99.90;;;;;;5056195;28;20453;-64
2024/01/16 02:12:00;;;;;;;13.77;9.50;;;2.20;99.90;;;;;;5056385;28;20488;-64
2024/01/16 02:14:27;;;;;;;26.30;11.93;;;2.10;99.90;;;;;;5056506;28;20448;-64
2024/01/16 02:16:54;;;;;;;16.63;10.37;;;2.10;99.90;;;;;;5056311;28;20497;-64
2024/01/16 02:19:20;;;;;;;13.23;8.77;;;2.20;99.90;;;;;;5055822;28;20979;-64
2024/01/16 02:21:50;;;;;;;17.97;9.07;;;2.10;99.90;;;;;;5056322;28;20464;-64
2024/01/16 02:24:19;;;;;;;19.60;10.70;;;2.10;99.90;;;;;;5056221;28;20444;-64
2024/01/16 02:26:46;;;;;;;15.10;9.60;;;2.10;99.90;;;;;;5056175;28;20479;-64
2024/01/16 02:29:13;;;;;;;15.53;8.80;;;2.10;99.90;;;;;;5056066;28;20437;-64
2024/01/16 02:31:40;;;;;;;16.30;8.60;;;2.10;99.90;;;;;;5055883;28;20516;-64
2024/01/16 02:34:06;;;;;;;12.00;8.40;;;2.10;99.90;;;;;;5056252;28;20446;-64
2024/01/16 02:36:34;;;;;;;12.70;7.97;;;2.10;99.90;;;;;;5055959;28;20468;-64
2024/01/16 02:39:00;;;;;;;14.87;8.10;;;2.00;99.90;;;;;;5055897;28;20876;-64
2024/01/16 02:41:29;;;;;;;11.23;7.70;;;2.00;99.90;;;;;;5055908;28;20437;-64
2024/01/16 02:43:55;;;;;;;14.10;8.30;;;2.00;99.90;;;;;;5055791;28;20445;-64
2024/01/16 02:46:22;;;;;;;12.53;8.37;;;2.10;99.90;;;;;;5055694;28;20448;-64
2024/01/16 02:48:49;;;;;;;16.77;8.60;;;2.10;99.90;;;;;;5055872;28;20449;-64
2024/01/16 02:51:16;;;;;;;18.70;9.03;;;2.10;99.90;;;;;;5055602;28;20480;-63
2024/01/16 02:53:43;;;;;;;13.83;8.73;;;2.10;99.90;;;;;;5055351;28;20445;-64
2024/01/16 02:56:10;;;;;;;11.17;8.90;;;2.10;99.90;;;;;;5054999;28;20438;-64
2024/01/16 02:58:38;;;;;;;18.33;9.40;;;2.10;99.90;;;;;;5055610;28;20445;-64
2024/01/16 03:01:05;;;;;;;14.70;8.87;;;2.10;99.90;;;;;;5055222;28;20465;-64
2024/01/16 03:03:31;;;;;;;11.27;9.10;;;2.10;99.90;;;;;;5055530;28;20903;-65
2024/01/16 03:05:59;;;;;;;17.70;9.07;;;2.10;99.90;;;;;;5055494;28;20438;-64
2024/01/16 03:08:25;;;;;;;12.57;9.10;;;2.10;99.90;;;;;;5055699;28;20532;-64
2024/01/16 03:10:53;;;;;;;12.90;9.97;;;2.10;99.90;;;;;;5055321;28;20822;-65
2024/01/16 03:13:19;;;;;;;15.00;9.43;;;2.10;99.90;;;;;;5055606;28;20485;-65
2024/01/16 03:15:47;;;;;;;15.80;9.90;;;2.10;99.90;;;;;;5055591;28;20446;-63
2024/01/16 03:18:14;;;;;;;12.77;10.00;;;2.10;99.90;;;;;;5056122;28;20532;-64
2024/01/16 03:20:41;;;;;;;18.37;8.93;;;2.10;99.90;;;;;;5055919;28;20457;-64
2024/01/16 03:23:07;;;;;;;13.50;9.83;;;2.10;99.90;;;;;;5055451;28;20445;-64
2024/01/16 03:25:38;;;;;;;16.13;9.97;;;2.00;99.90;;;;;;5055254;28;20446;-64
2024/01/16 03:28:07;;;;;;;11.23;9.40;;;2.10;99.90;;;;;;5056298;28;20437;-64
2024/01/16 03:30:34;;;;;;;11.90;8.60;;;2.10;99.90;;;;;;5055654;28;20469;-64
2024/01/16 03:33:03;;;;;;;13.77;8.90;;;2.00;99.90;;;;;;5055183;28;20481;-63
2024/01/16 03:35:29;;;;;;;10.70;8.70;;;2.00;99.90;;;;;;5055253;28;20445;-63
2024/01/16 03:37:56;;;;;;;10.60;9.43;;;2.00;99.90;;;;;;5054822;28;20967;-64
2024/01/16 03:40:23;;;;;;;11.37;8.43;;;2.00;99.90;;;;;;5054934;28;20531;-63
2024/01/16 03:42:50;;;;;;;14.53;8.80;;;2.00;99.90;;;;;;5054705;28;20981;-63
2024/01/16 03:45:16;;;;;;;12.00;8.60;;;1.90;99.90;;;;;;5055091;28;20469;-64
2024/01/16 03:47:43;;;;;;;13.73;8.87;;;1.90;99.90;;;;;;5054953;28;20449;-63
2024/01/16 03:50:11;;;;;;;12.77;9.23;;;1.90;99.90;;;;;;5054677;28;20497;-64
2024/01/16 03:52:38;;;;;;;10.70;8.83;;;1.90;99.90;;;;;;5054600;28;20551;-64
2024/01/16 03:55:05;;;;;;;11.80;9.00;;;1.90;99.90;;;;;;5054799;28;20815;-63
2024/01/16 03:57:32;;;;;;;18.40;10.00;;;1.90;99.90;;;;;;5054923;28;20820;-63
2024/01/16 03:59:59;;;;;;;13.00;8.83;;;1.90;99.90;;;;;;5054661;28;20464;-64
2024/01/16 04:02:25;;;;;;;17.17;9.93;;;1.80;99.90;;;;;;5054189;28;20931;-64
2024/01/16 04:04:52;;;;;;;11.07;9.97;;;1.90;99.90;;;;;;5054435;28;20476;-64
2024/01/16 04:07:23;;;;;;;14.43;10.00;;;1.90;99.90;;;;;;5054063;28;20437;-64
2024/01/16 04:09:49;;;;;;;13.63;9.90;;;1.90;99.90;;;;;;5054367;28;20470;-64
2024/01/16 04:12:16;;;;;;;22.30;11.20;;;1.90;99.90;;;;;;5053749;28;20485;-64
2024/01/16 04:14:43;;;;;;;22.73;10.30;;;1.90;99.90;;;;;;5054341;28;20445;-64
2024/01/16 04:17:09;;;;;;;17.03;9.70;;;1.90;99.90;;;;;;5054541;28;20445;-64
2024/01/16 04:19:36;;;;;;;19.20;11.27;;;1.90;99.90;;;;;;5054181;28;20836;-63
2024/01/16 04:22:04;;;;;;;21.77;9.60;;;2.00;99.90;;;;;;5054053;28;20544;-64
2024/01/16 04:24:32;;;;;;;18.70;10.00;;;1.90;99.90;;;;;;5053841;28;20827;-64
2024/01/16 04:26:59;;;;;;;16.10;9.97;;;1.90;99.90;;;;;;5054138;28;20449;-63
2024/01/16 04:29:26;;;;;;;23.40;10.60;;;2.00;99.90;;;;;;5053794;28;20465;-64
2024/01/16 04:31:53;;;;;;;11.37;9.30;;;1.90;99.90;;;;;;5053653;28;20485;-64
2024/01/16 04:34:19;;;;;;;13.47;9.60;;;1.90;99.90;;;;;;5053815;28;20471;-64
2024/01/16 04:36:46;;;;;;;15.47;9.23;;;1.90;99.90;;;;;;5053559;28;20959;-64
2024/01/16 04:39:13;;;;;;;19.43;9.70;;;1.90;99.90;;;;;;5053659;28;20519;-64
2024/01/16 04:41:41;;;;;;;16.03;9.07;;;1.90;99.90;;;;;;5053659;28;20453;-63
2024/01/16 04:44:08;;;;;;;13.50;8.50;;;1.90;99.90;;;;;;5053647;28;20438;-63
2024/01/16 04:46:35;;;;;;;16.30;9.10;;;1.90;99.90;;;;;;5053396;28;20438;-63
2024/01/16 04:49:02;;;;;;;13.60;7.97;;;1.90;99.90;;;;;;5053546;28;20450;-63
2024/01/16 04:51:28;;;;;;;13.33;7.87;;;1.90;99.90;;;;;;5053075;28;20453;-63
2024/01/16 04:53:55;;;;;;;15.97;8.70;;;1.90;99.90;;;;;;5053419;28;20466;-64
2024/01/16 04:56:22;;;;;;;17.47;8.90;;;2.00;99.90;;;;;;5053533;28;20438;-63
2024/01/16 04:58:50;;;;;;;19.20;9.33;;;1.90;99.90;;;;;;5053783;28;20442;-63
2024/01/16 05:01:16;;;;;;;14.83;8.13;;;1.90;99.90;;;;;;5054016;28;20468;-63
2024/01/16 05:03:43;;;;;;;12.33;8.23;;;1.80;99.90;;;;;;5053909;28;20444;-63
2024/01/16 05:06:14;;;;;;;20.17;7.87;;;1.80;99.90;;;;;;5053536;28;20797;-63
2024/01/16 05:08:41;;;;;;;20.47;7.23;;;1.80;99.90;;;;;;5053318;28;20453;-63
2024/01/16 05:11:08;;;;;;;16.53;7.43;;;1.80;99.90;;;;;;5053093;28;20468;-63
2024/01/16 05:13:35;;;;;;;13.43;7.63;;;1.80;99.90;;;;;;5053311;28;20473;-63
2024/01/16 05:16:03;;;;;;;17.00;8.80;;;1.80;99.90;;;;;;5053152;28;20484;-63
2024/01/16 05:18:32;;;;;;;9.33;6.73;;;1.80;99.90;;;;;;5052387;28;20948;-63
2024/01/16 05:20:59;;;;;;;16.17;6.20;;;1.80;99.90;;;;;;5053122;28;20515;-63
2024/01/16 05:23:25;;;;;;;15.13;5.60;;;1.80;99.90;;;;;;5052862;28;20927;-63
2024/01/16 05:25:52;;;;;;;12.07;6.00;;;1.70;99.90;;;;;;5053170;28;20456;-63
2024/01/16 05:28:19;;;;;;;30.20;6.37;;;1.80;99.90;;;;;;5052799;28;20448;-63
2024/01/16 05:30:45;;;;;;;14.40;6.60;;;1.80;99.90;;;;;;5052637;28;20857;-63
2024/01/16 05:33:13;;;;;;;11.17;5.53;;;1.80;99.90;;;;;;5052850;28;20481;-63
2024/01/16 05:35:40;;;;;;;7.50;4.60;;;1.80;99.90;;;;;;5053075;28;20446;-63
2024/01/16 05:38:07;;;;;;;11.03;5.00;;;1.80;99.90;;;;;;5053085;28;20452;-63
2024/01/16 05:40:33;;;;;;;14.73;6.17;;;1.80;99.90;;;;;;5052959;28;20473;-63
2024/01/16 05:43:01;;;;;;;8.53;4.63;;;1.90;99.90;;;;;;5052995;28;20442;-63
2024/01/16 05:45:28;;;;;;;14.90;5.40;;;1.80;99.90;;;;;;5052974;28;20450;-63
2024/01/16 05:47:55;;;;;;;7.93;5.50;;;1.80;99.90;;;;;;5052674;28;20448;-63
2024/01/16 05:50:23;;;;;;;12.07;4.97;;;1.70;99.90;;;;;;5052675;28;21051;-63
2024/01/16 05:52:50;;;;;;;11.17;5.30;;;1.70;99.90;;;;;;5052424;28;20485;-63
2024/01/16 05:55:16;;;;;;;6.23;3.63;;;1.80;99.90;;;;;;5052917;28;20468;-63
2024/01/16 05:57:43;;;;;;;10.80;4.33;;;1.70;99.90;;;;;;5052879;28;20462;-63
2024/01/16 06:00:11;;;;;;;9.73;5.20;;;1.70;99.90;;;;;;5052764;28;20465;-63
2024/01/16 06:02:38;;;;;;;9.83;4.47;;;1.70;99.90;;;;;;5052778;28;20441;-63
2024/01/16 06:05:05;;;;;;;6.57;4.50;;;1.70;99.90;;;;;;5052846;28;20545;-63
2024/01/16 06:07:33;;;;;;;11.47;5.03;;;1.70;99.90;;;;;;5052753;28;20444;-63
2024/01/16 06:10:00;;;;;;;11.53;3.90;;;1.80;99.90;;;;;;5052740;28;20473;-63
2024/01/16 06:12:27;;;;;;;14.50;5.30;;;1.80;99.90;;;;;;5052563;28;20481;-63
2024/01/16 06:14:54;;;;;;;15.50;4.60;;;1.70;99.90;;;;;;5053146;28;20445;-63
2024/01/16 06:17:20;;;;;;;9.80;3.93;;;1.60;99.90;;;;;;5053372;28;20457;-63
2024/01/16 06:19:47;;;;;;;8.00;4.20;;;1.60;99.90;;;;;;5053384;28;20539;-63
2024/01/16 06:22:14;;;;;;;9.37;4.07;;;1.70;99.90;;;;;;5052909;28;20445;-63
2024/01/16 06:24:42;;;;;;;8.70;3.97;;;1.60;99.90;;;;;;5052531;28;20952;-63
2024/01/16 06:27:09;;;;;;;7.90;3.90;;;1.60;99.90;;;;;;5052410;28;20445;-63
2024/01/16 06:29:35;;;;;;;14.97;4.27;;;1.60;99.90;;;;;;5053051;28;20468;-63
2024/01/16 06:32:01;;;;;;;12.90;4.90;;;1.60;99.90;;;;;;5056208;28;20456;-63
2024/01/16 06:34:28;;;;;;;11.67;4.17;;;1.60;99.90;;;;;;5055972;28;20473;-63
2024/01/16 06:36:55;;;;;;;9.37;3.73;;;1.60;99.90;;;;;;5056330;28;20214;-63
2024/01/16 06:39:22;;;;;;;8.57;3.57;;;1.60;99.90;;;;;;5056020;28;20468;-63
2024/01/16 06:41:50;;;;;;;10.90;4.10;;;1.60;99.90;;;;;;5056079;28;20441;-63
2024/01/16 06:44:16;;;;;;;9.57;3.60;;;1.50;99.90;;;;;;5055782;28;20813;-63
2024/01/16 06:46:43;;;;;;;8.33;3.30;;;1.50;99.90;;;;;;5055981;28;20446;-63
2024/01/16 06:49:10;;;;;;;11.50;2.87;;;1.50;99.90;;;;;;5055981;28;20442;-62
2024/01/16 06:51:36;;;;;;;8.27;4.70;;;1.40;99.90;;;;;;5055641;28;20446;-63
2024/01/16 06:54:03;;;;;;;8.03;3.83;;;1.40;99.90;;;;;;5055827;28;20830;-63
2024/01/16 06:56:30;;;;;;;11.50;3.50;;;1.50;99.90;;;;;;5056312;28;20488;-63
2024/01/16 06:58:58;;;;;;;12.00;3.30;;;1.50;99.90;;;;;;5055787;28;20464;-63
2024/01/16 07:01:25;;;;;;;9.87;3.70;;;1.50;99.90;;;;;;5055288;28;20967;-63
2024/01/16 07:03:52;;;;;;;8.17;3.47;;;1.40;99.90;;;;;;5055623;28;20452;-63
2024/01/16 07:06:19;;;;;;;10.30;4.10;;;1.50;99.90;;;;;;5055390;28;20449;-62
2024/01/16 07:08:45;;;;;;;5.13;3.10;;;1.50;99.90;;;;;;5055517;28;20449;-63
2024/01/16 07:11:13;;;;;;;5.90;3.13;;;1.50;99.90;;;;;;5055372;28;20468;-63
2024/01/16 07:13:40;;;;;;;7.43;2.93;;;1.60;99.90;;;;;;5054982;28;20470;-63
2024/01/16 07:16:11;;;;;;;17.47;3.93;;;1.60;99.90;;;;;;5055650;28;20444;-63
2024/01/16 07:18:38;;;;;;;9.73;4.10;;;1.70;99.90;;;;;;5055425;28;20954;-63
2024/01/16 07:21:05;;;;;;;10.83;3.30;;;1.70;99.90;;;;;;5055212;28;20461;-63
2024/01/16 07:23:32;;;;;;;7.17;3.60;;;1.70;99.90;;;;;;5055226;28;20450;-63
2024/01/16 07:25:59;;;;;;;5.77;3.03;;;1.70;99.90;;;;;;5055043;28;20461;-63
2024/01/16 07:28:25;;;;;;;4.60;2.77;;;1.70;99.90;;;;;;5055419;28;20441;-63
2024/01/16 07:30:54;;;;;;;7.43;3.07;;;1.70;99.90;;;;;;5055038;28;20830;-63
2024/01/16 07:33:22;;;;;;;9.13;3.47;;;1.80;99.90;;;;;;5054635;28;20875;-63
2024/01/16 07:35:49;;;;;;;11.87;3.60;;;1.80;99.90;;;;;;5055168;28;20445;-63
2024/01/16 07:38:15;;;;;;;7.47;3.40;;;1.80;99.90;;;;;;5055031;28;20452;-63
2024/01/16 07:40:42;;;;;;;12.10;3.50;;;1.80;99.90;;;;;;5054679;28;20465;-63
2024/01/16 07:43:09;;;;;;;7.80;3.73;;;1.90;99.90;;;;;;5054755;28;20813;-63
2024/01/16 07:45:36;;;;;;;9.50;3.90;;;1.90;99.90;;;;;;5054931;28;20481;-63
2024/01/16 07:48:03;;;;;;;10.50;3.90;;;2.00;99.90;;;;;;5054660;28;20966;-63
2024/01/16 07:50:31;;;;;;;10.27;4.23;;;2.00;99.90;;;;;;5054895;28;20461;-63
2024/01/16 07:52:58;;;;;;;9.37;5.37;;;2.00;99.90;;;;;;5054376;28;20493;-63
2024/01/16 07:55:24;;;;;;;13.30;4.70;;;2.00;99.90;;;;;;5055002;28;20449;-63
2024/01/16 07:57:51;;;;;;;14.03;4.70;;;2.00;99.90;;;;;;5055149;28;20450;-63
2024/01/16 08:00:18;;;;;;;9.33;4.50;;;2.00;99.90;;;;;;5054580;28;20489;-63
2024/01/16 08:02:45;;;;;;;9.73;4.40;;;2.10;99.90;;;;;;5054587;28;20467;-63
2024/01/16 08:05:12;;;;;;;9.00;4.80;;;2.00;99.90;;;;;;5054767;28;20445;-63
2024/01/16 08:07:43;;;;;;;7.80;4.20;;;2.00;99.90;;;;;;5054542;28;20441;-63
2024/01/16 08:10:10;;;;;;;11.13;4.30;;;1.90;99.90;;;;;;5054291;28;20469;-63
2024/01/16 08:12:38;;;;;;;8.40;4.77;;;2.00;99.90;;;;;;5054151;28;20448;-63
2024/01/16 08:15:07;;;;;;;9.80;4.03;;;1.90;99.90;;;;;;5054209;28;20511;-63
2024/01/16 08:17:34;;;;;;;8.60;4.47;;;1.90;99.90;;;;;;5054255;28;20445;-63
2024/01/16 08:20:00;;;;;;;8.93;4.63;;;1.90;99.90;;;;;;5054470;28;20468;-63
2024/01/16 08:22:27;;;;;;;10.33;4.77;;;1.90;99.90;;;;;;5054146;28;20445;-63
2024/01/16 08:24:55;;;;;;;10.80;4.80;;;1.90;99.90;;;;;;5054249;28;20442;-63
2024/01/16 08:27:22;;;;;;;16.20;5.20;;;2.00;99.90;;;;;;5054348;28;20963;-63
2024/01/16 08:29:49;;;;;;;11.27;4.40;;;1.90;99.90;;;;;;5054046;28;20461;-63
2024/01/16 08:32:16;;;;;;;8.47;4.37;;;1.90;99.90;;;;;;5053876;28;20533;-63
2024/01/16 08:34:43;;;;;;;18.63;4.10;;;1.90;99.90;;;;;;5053760;28;20496;-63
2024/01/16 08:37:10;;;;;;;9.20;4.53;;;1.90;99.90;;;;;;5054069;28;20468;-63
2024/01/16 08:39:36;;;;;;;11.00;4.10;;;2.00;99.90;;;;;;5053845;28;20541;-63
2024/01/16 08:42:05;;;;;;;7.00;3.90;;;2.00;99.90;;;;;;5054083;28;20448;-63
2024/01/16 08:44:32;;;;;;;7.00;3.77;;;2.10;99.90;;;;;;5053782;28;20468;-63
2024/01/16 08:46:59;;;;;;;12.57;4.13;;;2.10;99.90;;;;;;5053925;28;20437;-63
2024/01/16 08:49:26;;;;;;;8.93;3.83;;;2.10;99.90;;;;;;5053687;28;20470;-63
2024/01/16 08:51:52;;;;;;;10.97;4.27;;;2.10;99.90;;;;;;5053288;28;20476;-63
2024/01/16 08:54:22;;;;;;;12.07;4.60;;;2.20;99.90;;;;;;5053542;28;20488;-63
2024/01/16 08:56:49;;;;;;;14.80;4.77;;;2.20;99.90;;;;;;5054033;28;20479;-63
2024/01/16 08:59:17;;;;;;;10.70;3.80;;;2.20;99.90;;;;;;5053510;28;20456;-64
2024/01/16 09:01:44;;;;;;;7.13;4.80;;;2.20;99.90;;;;;;5054217;28;20935;-63
2024/01/16 09:04:11;;;;;;;8.97;4.83;;;2.20;99.90;;;;;;5054228;28;20788;-63
2024/01/16 09:06:38;;;;;;;7.30;3.97;;;2.30;99.90;;;;;;5055550;28;20862;-64
2024/01/16 09:09:05;;;;;;;5.40;3.87;;;2.30;99.90;;;;;;5055254;28;20810;-63
2024/01/16 09:11:31;;;;;;;6.67;4.03;;;2.30;99.90;;;;;;5053063;28;20477;-63
2024/01/16 09:13:58;;;;;;;6.93;4.70;;;2.30;99.90;;;;;;5053838;28;20849;-62
2024/01/16 09:16:26;;;;;;;10.60;4.60;;;2.10;99.90;;;;;;5056952;28;20816;-64
2024/01/16 09:18:54;;;;;;;9.10;3.70;;;2.00;99.90;;;;;;5055921;28;20450;-63
2024/01/16 09:21:21;;;;;;;7.73;4.57;;;2.00;99.90;;;;;;5054934;28;20465;-63
2024/01/16 09:23:48;;;;;;;9.63;4.03;;;2.00;99.90;;;;;;5054159;28;20464;-63
2024/01/16 09:26:14;;;;;;;14.93;5.00;;;2.00;99.90;;;;;;5053746;28;20950;-63
2024/01/16 09:28:41;;;;;;;8.20;4.40;;;1.90;99.90;;;;;;5053465;28;20446;-63
2024/01/16 09:31:08;;;;;;;11.50;4.30;;;2.00;99.90;;;;;;5053591;28;20469;-63
2024/01/16 09:33:36;;;;;;;10.30;4.30;;;2.00;99.90;;;;;;5053325;28;20485;-63
2024/01/16 09:36:03;;;;;;;7.37;4.53;;;2.00;99.90;;;;;;5053470;28;20453;-63
2024/01/16 09:38:31;;;;;;;13.30;4.53;;;2.00;99.90;;;;;;5053210;28;20452;-63
2024/01/16 09:40:58;;;;;;;10.17;4.10;;;2.00;99.90;;;;;;5053303;28;20469;-63
2024/01/16 09:43:27;;;;;;;5.97;3.90;;;2.00;99.90;;;;;;5053132;28;20452;-63
2024/01/16 09:45:56;;;;;;;6.10;4.70;;;1.90;99.90;;;;;;5053226;28;20453;-63
2024/01/16 09:48:23;;;;;;;27.37;5.60;;;1.90;99.90;;;;;;5053286;28;20438;-63
2024/01/16 09:50:51;;;;;;;10.10;5.17;;;1.90;99.90;;;;;;5053161;28;20834;-63
2024/01/16 09:53:18;;;;;;;9.10;4.07;;;1.80;99.90;;;;;;5052979;28;20464;-63
2024/01/16 09:55:45;;;;;;;6.90;3.93;;;1.90;99.90;;;;;;5052754;28;20940;-63
2024/01/16 09:58:14;;;;;;;6.20;3.40;;;1.90;99.90;;;;;;5053064;28;20441;-63
2024/01/16 10:00:43;;;;;;;12.50;4.53;;;2.00;99.90;;;;;;5052858;28;20506;-62
2024/01/16 10:03:12;;;;;;;6.27;4.50;;;1.90;99.90;;;;;;5052954;28;20450;-63
2024/01/16 10:05:40;;;;;;;13.53;5.33;;;1.90;99.90;;;;;;5056542;28;20441;-63
2024/01/16 10:08:08;;;;;;;9.53;4.67;;;2.00;99.90;;;;;;5057007;28;20441;-63
2024/01/16 10:10:35;;;;;;;4.40;3.50;;;2.10;99.90;;;;;;5056962;28;20458;-63
2024/01/16 10:13:02;;;;;;;9.00;3.83;;;2.20;99.90;;;;;;5056602;28;20448;-63
2024/01/16 10:15:29;;;;;;;8.83;4.77;;;2.30;99.90;;;;;;5056715;28;20477;-63
2024/01/16 10:17:55;;;;;;;9.27;4.30;;;2.30;99.90;;;;;;5056694;28;20446;-63
2024/01/16 10:20:33;;;;;;;10.33;4.97;;;2.40;99.90;;;;;;5056028;28;20461;-63
2024/01/16 10:23:00;;;;;;;10.70;4.73;;;2.50;99.90;;;;;;5056428;28;20417;-63
2024/01/16 10:25:28;;;;;;;9.97;4.47;;;2.50;99.90;;;;;;5056915;28;20445;-63
2024/01/16 10:28:04;;;;;;;21.80;6.73;;;2.60;99.90;;;;;;5056134;28;20974;-63
2024/01/16 10:30:31;;;;;;;8.03;4.60;;;2.60;99.90;;;;;;5056234;28;20465;-63
2024/01/16 10:33:14;;;;;;;9.77;4.20;;;2.60;99.90;;;;;;5055791;28;20943;-63
2024/01/16 10:35:41;;;;;;;9.30;4.57;;;2.70;99.90;;;;;;5056150;28;20496;-63
2024/01/16 10:38:07;;;;;;;10.07;5.50;;;2.80;99.90;;;;;;5056224;28;20453;-63
2024/01/16 10:40:35;;;;;;;8.73;5.03;;;2.80;99.90;;;;;;5056848;28;20478;-63
2024/01/16 10:43:04;;;;;;;6.50;3.80;;;2.90;99.80;;;;;;5056182;28;20446;-63
2024/01/16 10:45:31;;;;;;;12.37;3.50;;;2.90;99.50;;;;;;5056022;28;20449;-63
2024/01/16 10:48:05;;;;;;;11.80;5.40;;;3.00;99.30;;;;;;5056136;28;20437;-63
2024/01/16 10:50:33;;;;;;;9.80;4.90;;;3.20;99.30;;;;;;5055866;28;20559;-63
2024/01/16 10:53:01;;;;;;;12.63;5.33;;;3.20;98.60;;;;;;5055445;28;20454;-63
2024/01/16 10:55:30;;;;;;;14.23;4.50;;;3.20;98.30;;;;;;5055587;28;20477;-63
2024/01/16 10:58:00;;;;;;;11.80;4.40;;;3.20;98.90;;;;;;5055708;28;20450;-64
2024/01/16 11:00:28;;;;;;;4.70;3.70;;;3.30;98.20;;;;;;5055502;28;21067;-64
2024/01/16 11:03:01;;;;;;;8.43;4.50;;;3.40;98.20;;;;;;5055687;28;20795;-64
2024/01/16 11:05:31;;;;;;;9.00;4.20;;;3.50;98.10;;;;;;5055661;28;20465;-64
2024/01/16 11:08:00;;;;;;;8.80;4.40;;;3.50;97.50;;;;;;5056047;28;20434;-64
2024/01/16 11:10:28;;;;;;;8.73;4.40;;;3.40;96.60;;;;;;5055586;28;20469;-64
2024/01/16 11:12:56;;;;;;;10.00;4.93;;;3.40;96.90;;;;;;5055587;28;20441;-63
2024/01/16 11:15:25;;;;;;;8.47;5.50;;;3.40;96.60;;;;;;5054565;28;20481;-64
2024/01/16 11:17:54;;;;;;;10.33;5.20;;;3.40;96.60;;;;;;5055508;28;20499;-63
2024/01/16 11:20:21;;;;;;;6.90;4.40;;;3.40;96.10;;;;;;5055375;28;20556;-63
2024/01/16 11:22:50;;;;;;;8.40;4.50;;;3.40;96.20;;;;;;5055354;28;20528;-63
2024/01/16 11:25:18;;;;;;;8.40;4.30;;;3.40;95.90;;;;;;5055103;28;20928;-63
2024/01/16 11:27:50;;;;;;;12.33;5.70;;;3.40;96.10;;;;;;5055423;28;20438;-63
2024/01/16 11:30:32;;;;;;;14.00;5.77;;;3.50;95.90;;;;;;5054993;28;20477;-63
2024/01/16 11:33:00;;;;;;;6.67;3.67;;;3.60;95.50;;;;;;5055228;28;20835;-63
2024/01/16 11:35:33;;;;;;;11.50;4.77;;;3.70;95.40;;;;;;5054739;28;20488;-64
2024/01/16 11:38:06;;;;;;;12.83;4.53;;;3.70;94.90;;;;;;5055113;28;20434;-63
2024/01/16 11:40:36;;;;;;;11.70;4.67;;;3.60;94.70;;;;;;5055137;28;20490;-63
2024/01/16 11:43:36;;;;;;;6.80;4.43;;;3.60;94.90;;;;;;5054779;28;20954;-63
2024/01/16 11:46:05;;;;;;;6.00;3.87;;;3.70;95.30;;;;;;5054840;28;20430;-63
2024/01/16 11:48:32;;;;;;;5.50;3.63;;;3.80;94.60;;;;;;5054879;28;20441;-64
2024/01/16 11:50:59;;;;;;;7.60;4.23;;;3.90;94.60;;;;;;5054623;28;20461;-64
2024/01/16 11:53:40;;;;;;;10.10;4.30;;;4.10;94.40;;;;;;5054766;28;20536;-64
2024/01/16 11:56:27;;;;;;;11.63;4.80;;;4.40;94.10;;;;;;5054194;28;21060;-64
2024/01/16 11:59:08;;;;;;;5.87;4.10;;;4.50;93.00;;;;;;5054605;28;20433;-64
2024/01/16 12:01:37;;;;;;;8.40;4.37;;;4.60;92.00;;;;;;5054555;28;20429;-65
2024/01/16 12:04:04;;;;;;;10.27;4.60;;;4.80;92.10;;;;;;5054494;28;20449;-65
2024/01/16 12:06:31;;;;;;;9.50;4.63;;;4.90;91.30;;;;;;5054419;28;20544;-66
2024/01/16 12:09:12;;;;;;;10.43;4.30;;;4.80;90.40;;;;;;5054467;28;20844;-65
2024/01/16 12:11:39;;;;;;;5.23;3.90;;;4.70;90.90;;;;;;5054518;28;20458;-65
2024/01/16 12:14:06;;;;;;;8.27;4.70;;;4.60;90.90;;;;;;5054091;28;20574;-66
2024/01/16 12:16:32;;;;;;;7.73;4.20;;;4.60;91.20;;;;;;5053975;28;20943;-65
2024/01/16 12:19:07;;;;;;;8.60;5.63;;;4.90;91.20;;;;;;5054237;28;20442;-65
2024/01/16 12:21:35;;;;;;;8.50;4.70;;;5.00;90.60;;;;;;5054125;28;20426;-66
2024/01/16 12:24:03;;;;;;;10.00;4.40;;;5.00;89.80;;;;;;5054591;28;20449;-65
2024/01/16 12:26:30;;;;;;;7.60;4.33;;;5.00;90.00;;;;;;5053908;28;20940;-66
2024/01/16 12:28:57;;;;;;;6.43;4.40;;;5.10;89.10;;;;;;5054821;28;20437;-65
2024/01/16 12:31:24;;;;;;;8.97;3.70;;;5.30;89.50;;;;;;5055683;28;20944;-65
2024/01/16 12:33:51;;;;;;;10.17;4.10;;;5.10;86.20;;;;;;5054999;28;20454;-65
2024/01/16 12:36:19;;;;;;;9.80;4.33;;;5.10;85.40;;;;;;5054551;28;20911;-65
2024/01/16 12:38:54;;;;;;;8.60;4.57;;;5.00;85.80;;;;;;5054363;28;20445;-65
2024/01/16 12:41:21;;;;;;;7.97;4.63;;;4.90;86.20;;;;;;5054080;28;20465;-65
2024/01/16 12:43:50;;;;;;;6.87;4.50;;;4.90;87.30;;;;;;5054026;28;20442;-64
2024/01/16 12:46:19;;;;;;;7.33;4.83;;;4.90;88.20;;;;;;5053974;28;20469;-64
2024/01/16 12:48:47;;;;;;;24.23;4.70;;;4.90;86.70;;;;;;5053672;28;21024;-64
2024/01/16 12:51:20;;;;;;;8.27;4.87;;;4.90;86.10;;;;;;5053670;28;20501;-64